Baltimore, Maryland
Traffic Map
Current Weather Conditions
Baltimore, Maryland
Clear
Clear
57°
Feels Like: 57°
Wind Chill: 57° Ceiling: Unl
Heat Index: 57° Visibility: 10mi
Dew Point: 42° Wind: 7mph
Humidity: 57% Direction: 270° (W)
Pressure: 29.72in Gusts: 0mph
Raw Report DataKBWI 260154Z 27006KT 10SM CLR 14/06 A2972 RMK AO2 SLP062 T01390056
Traffic Incident Summary
Active as of:
Severity:
Category:
InformationThere was an issue retrieving the traffic information for this location. Please try a different location or try again shortly.
Advertisements
Track Severe Weather on mobile